Weather at Portland Troutdale Airport

Public forecast

Using degrees Fahrenheit for public forecast. Weather courtesy of forecast.io.

Current aviation weather report (METAR) for Portland Troutdale Airport

2024/07/22 13:53 (retrieved 39 minutes ago)

KTTD 221353Z AUTO 00000KT 10SM BKN031 17/12 A3014 RMK AO2 SLP204 T01670117

Aviation forecast (TAF) for Portland Troutdale Airport

2024/07/22 14:00 Ammendment (retrieved 32 minutes ago)

TAF AMD KTTD 221358Z 2214/2312 VRB03KT P6SM OVC030 FM221700 VRB03KT P6SM FEW020 FM222300 30007KT P6SM SKC